Time;durP1;ratioP1;P1;durP2;ratioP2;P2;SDS_P1;SDS_P2;PMS_P1;PMS_P2;Temp;Humidity;BMP_temperature;BMP_pressure;BME280_temperature;BME280_humidity;BME280_pressure;Samples;Min_cycle;Max_cycle;Signal;HPM_P1;HPM_P2
2022/05/28 00:00:51;;;;;;;7.55;3.55;;;;;;;;;;5069019;28;20290;-57
2022/05/28 00:03:16;;;;;;;7.88;3.63;;;;;;;;;;5066051;28;20027;-57
2022/05/28 00:05:42;;;;;;;4.75;3.60;;;;;;;;;;5071230;28;20033;-57
2022/05/28 00:08:07;;;;;;;8.68;4.03;;;;;;;;;;5073229;28;20016;-57
2022/05/28 00:10:33;;;;;;;6.22;3.42;;;;;;;;;;5071147;28;20103;-57
2022/05/28 00:12:59;;;;;;;6.07;3.58;;;;;;;;;;5061895;28;20052;-57
2022/05/28 00:15:24;;;;;;;6.05;3.97;;;;;;;;;;5059498;28;20478;-57
2022/05/28 00:17:50;;;;;;;5.38;3.53;;;;;;;;;;5061882;28;20111;-59
2022/05/28 00:20:15;;;;;;;8.63;3.67;;;;;;;;;;5063974;28;20020;-56
2022/05/28 00:22:43;;;;;;;6.43;4.03;;;;;;;;;;5066156;28;20028;-57
2022/05/28 00:25:10;;;;;;;7.13;4.47;;;;;;;;;;5065010;28;20024;-58
2022/05/28 00:27:36;;;;;;;7.88;4.95;;;;;;;;;;5072765;28;20024;-58
2022/05/28 00:30:02;;;;;;;9.00;4.85;;;;;;;;;;5070664;28;20055;-58
2022/05/28 00:32:28;;;;;;;9.80;4.38;;;;;;;;;;5068793;28;20032;-58
2022/05/28 00:34:53;;;;;;;7.85;4.60;;;;;;;;;;5070493;28;20023;-58
2022/05/28 00:37:18;;;;;;;9.38;5.13;;;;;;;;;;5072964;28;20035;-58
2022/05/28 00:39:44;;;;;;;9.50;4.80;;;;;;;;;;5067568;28;20112;-58
2022/05/28 00:42:09;;;;;;;10.50;5.47;;;;;;;;;;5068955;28;20395;-58
2022/05/28 00:44:35;;;;;;;10.07;5.00;;;;;;;;;;5068569;28;20021;-58
2022/05/28 00:47:00;;;;;;;11.35;4.85;;;;;;;;;;5072045;28;20028;-58
2022/05/28 00:49:29;;;;;;;8.65;5.65;;;;;;;;;;5068696;28;20047;-58
2022/05/28 00:52:00;;;;;;;14.27;5.97;;;;;;;;;;5070367;28;20386;-58
2022/05/28 00:54:31;;;;;;;8.00;5.15;;;;;;;;;;5066773;28;20067;-58
2022/05/28 00:56:56;;;;;;;12.88;5.78;;;;;;;;;;5072325;28;20029;-60
2022/05/28 00:59:22;;;;;;;9.70;5.45;;;;;;;;;;5073278;28;20432;-58
2022/05/28 01:01:48;;;;;;;10.50;5.55;;;;;;;;;;5071547;28;20348;-57
2022/05/28 01:04:15;;;;;;;10.07;5.65;;;;;;;;;;5072960;28;20020;-58
2022/05/28 01:06:43;;;;;;;10.00;5.65;;;;;;;;;;5074108;28;20487;-60
2022/05/28 01:09:19;;;;;;;11.90;6.00;;;;;;;;;;5077725;28;20023;-59
2022/05/28 01:11:49;;;;;;;10.35;6.13;;;;;;;;;;5072489;28;20044;-59
2022/05/28 01:14:23;;;;;;;;;;;;;;;;;;5061715;28;20390;-60
2022/05/28 01:16:49;;;;;;;12.82;5.93;;;;;;;;;;5066197;28;19912;-59
2022/05/28 01:19:20;;;;;;;12.43;6.30;;;;;;;;;;5066693;28;20104;-59
2022/05/28 01:21:51;;;;;;;12.05;6.80;;;;;;;;;;5063191;28;20023;-60
2022/05/28 01:24:28;;;;;;;13.23;6.97;;;;;;;;;;5071457;28;20040;-59
2022/05/28 01:26:58;;;;;;;10.63;6.63;;;;;;;;;;5065244;28;20029;-59
2022/05/28 01:29:29;;;;;;;15.52;7.00;;;;;;;;;;5070171;28;20107;-59
2022/05/28 01:31:56;;;;;;;10.98;7.10;;;;;;;;;;5062244;28;20527;-59
2022/05/28 01:34:23;;;;;;;13.38;6.40;;;;;;;;;;5073769;28;20111;-58
2022/05/28 01:36:49;;;;;;;10.10;5.80;;;;;;;;;;5074076;28;20107;-58
2022/05/28 01:39:17;;;;;;;12.57;6.72;;;;;;;;;;5073078;28;20025;-58
2022/05/28 01:41:45;;;;;;;12.35;6.57;;;;;;;;;;5070330;28;20086;-58
2022/05/28 01:44:12;;;;;;;12.27;6.55;;;;;;;;;;5075878;28;20540;-59
2022/05/28 01:46:40;;;;;;;9.18;5.97;;;;;;;;;;5069622;28;20085;-58
2022/05/28 01:49:09;;;;;;;10.93;6.43;;;;;;;;;;5068732;28;20734;-58
2022/05/28 01:51:39;;;;;;;14.43;6.13;;;;;;;;;;5072235;28;20036;-58
2022/05/28 01:54:07;;;;;;;;;;;;;;;;;;5074238;28;20473;-58
2022/05/28 01:56:34;;;;;;;10.07;5.75;;;;;;;;;;5071313;28;19923;-58
2022/05/28 01:58:59;;;;;;;15.90;6.65;;;;;;;;;;5071482;28;20051;-58
2022/05/28 02:01:26;;;;;;;11.77;6.18;;;;;;;;;;5067538;28;20447;-58
2022/05/28 02:03:56;;;;;;;11.63;5.80;;;;;;;;;;5070752;28;20036;-58
2022/05/28 02:06:21;;;;;;;15.23;6.75;;;;;;;;;;5069477;28;20028;-57
2022/05/28 02:08:49;;;;;;;14.25;7.05;;;;;;;;;;5071969;28;20103;-57
2022/05/28 02:11:27;;;;;;;11.13;6.50;;;;;;;;;;5070375;28;20041;-57
2022/05/28 02:13:52;;;;;;;14.18;6.43;;;;;;;;;;5061158;28;20033;-57
2022/05/28 02:16:31;;;;;;;12.38;6.43;;;;;;;;;;5070766;28;20093;-57
2022/05/28 02:19:00;;;;;;;13.05;7.22;;;;;;;;;;5062232;28;20491;-57
2022/05/28 02:21:52;;;;;;;11.02;6.05;;;;;;;;;;5064371;28;20194;-57
2022/05/28 02:24:25;;;;;;;14.75;6.95;;;;;;;;;;5071060;28;20043;-57
2022/05/28 02:26:58;;;;;;;11.35;6.55;;;;;;;;;;5066371;28;20123;-57
2022/05/28 02:29:24;;;;;;;16.17;7.10;;;;;;;;;;5072362;28;20020;-59
2022/05/28 02:31:50;;;;;;;15.93;6.47;;;;;;;;;;5070069;28;20039;-59
2022/05/28 02:34:17;;;;;;;14.88;6.70;;;;;;;;;;5072542;28;20091;-57
2022/05/28 02:36:43;;;;;;;13.90;6.10;;;;;;;;;;5068030;28;20107;-57
2022/05/28 02:39:09;;;;;;;14.30;7.18;;;;;;;;;;5072279;28;20237;-57
2022/05/28 02:41:35;;;;;;;12.27;6.47;;;;;;;;;;5069630;28;20107;-58
2022/05/28 02:44:00;;;;;;;15.93;6.75;;;;;;;;;;5072563;28;20112;-57
2022/05/28 02:46:25;;;;;;;14.93;6.97;;;;;;;;;;5063584;28;20025;-58
2022/05/28 02:48:51;;;;;;;12.18;6.63;;;;;;;;;;5075224;28;20174;-58
2022/05/28 02:51:21;;;;;;;13.90;7.10;;;;;;;;;;5075243;28;20077;-58
2022/05/28 02:53:52;;;;;;;15.25;7.88;;;;;;;;;;5072617;28;20033;-58
2022/05/28 02:56:19;;;;;;;15.77;7.05;;;;;;;;;;5065103;28;20067;-58
2022/05/28 02:58:44;;;;;;;14.00;7.25;;;;;;;;;;5073311;28;20036;-58
2022/05/28 03:01:25;;;;;;;13.73;7.72;;;;;;;;;;5076717;28;20069;-58
2022/05/28 03:03:50;;;;;;;11.95;7.32;;;;;;;;;;5074326;28;20074;-57
2022/05/28 03:06:16;;;;;;;14.20;7.18;;;;;;;;;;5066954;28;20472;-58
2022/05/28 03:08:42;;;;;;;15.90;7.32;;;;;;;;;;5072279;28;20051;-58
2022/05/28 03:11:08;;;;;;;12.80;7.30;;;;;;;;;;5062798;28;20024;-57
2022/05/28 03:13:33;;;;;;;11.32;7.00;;;;;;;;;;5068268;28;20479;-57
2022/05/28 03:15:59;;;;;;;15.15;7.07;;;;;;;;;;5063291;28;20036;-57
2022/05/28 03:18:25;;;;;;;12.23;7.80;;;;;;;;;;5061368;28;20025;-57
2022/05/28 03:20:50;;;;;;;17.40;7.93;;;;;;;;;;5063828;28;20036;-57
2022/05/28 03:23:15;;;;;;;15.60;7.10;;;;;;;;;;5070725;28;20016;-57
2022/05/28 03:25:41;;;;;;;14.30;6.88;;;;;;;;;;5071120;28;20396;-57
2022/05/28 03:28:06;;;;;;;13.10;6.43;;;;;;;;;;5070809;28;20028;-58
2022/05/28 03:30:32;;;;;;;13.38;6.30;;;;;;;;;;5069968;28;20052;-57
2022/05/28 03:32:57;;;;;;;15.73;6.22;;;;;;;;;;5070730;28;20250;-58
2022/05/28 03:35:23;;;;;;;15.07;6.57;;;;;;;;;;5065494;28;20031;-58
2022/05/28 03:37:48;;;;;;;13.63;5.70;;;;;;;;;;5070727;28;20472;-57
2022/05/28 03:40:14;;;;;;;11.40;5.60;;;;;;;;;;5071410;28;20027;-57
2022/05/28 03:42:39;;;;;;;9.02;4.90;;;;;;;;;;5070133;28;20081;-57
2022/05/28 03:45:05;;;;;;;11.38;5.20;;;;;;;;;;5065755;28;20027;-58
2022/05/28 03:47:31;;;;;;;14.48;5.70;;;;;;;;;;5068211;28;20546;-57
2022/05/28 03:49:57;;;;;;;13.55;5.43;;;;;;;;;;5071735;28;20016;-57
2022/05/28 03:52:22;;;;;;;10.93;5.68;;;;;;;;;;5071429;28;20443;-58
2022/05/28 03:54:48;;;;;;;19.10;5.40;;;;;;;;;;5068407;28;20103;-58
2022/05/28 03:57:28;;;;;;;10.65;4.95;;;;;;;;;;5061917;28;20017;-57
2022/05/28 03:59:54;;;;;;;16.83;6.78;;;;;;;;;;5066652;28;20409;-57
2022/05/28 04:02:20;;;;;;;10.27;5.07;;;;;;;;;;5068549;28;20043;-57
2022/05/28 04:04:46;;;;;;;12.73;5.43;;;;;;;;;;5070108;28;20026;-57
2022/05/28 04:07:13;;;;;;;11.20;5.20;;;;;;;;;;5067210;28;20107;-57
2022/05/28 04:09:39;;;;;;;17.70;5.53;;;;;;;;;;5072181;28;20081;-58
2022/05/28 04:12:04;;;;;;;18.95;5.80;;;;;;;;;;5061852;28;20033;-57
2022/05/28 04:14:30;;;;;;;12.75;4.85;;;;;;;;;;5063027;28;20036;-57
2022/05/28 04:16:55;;;;;;;19.08;6.45;;;;;;;;;;5059855;28;20078;-57
2022/05/28 04:19:21;;;;;;;12.15;4.82;;;;;;;;;;5065114;28;20036;-58
2022/05/28 04:21:46;;;;;;;10.27;3.70;;;;;;;;;;5069772;28;20028;-58
2022/05/28 04:24:12;;;;;;;15.80;4.03;;;;;;;;;;5070449;28;20028;-57
2022/05/28 04:26:37;;;;;;;10.60;4.75;;;;;;;;;;5066350;28;20879;-56
2022/05/28 04:29:04;;;;;;;16.55;4.18;;;;;;;;;;5066264;28;20032;-57
2022/05/28 04:31:29;;;;;;;10.10;3.83;;;;;;;;;;5067321;28;20059;-56
2022/05/28 04:33:55;;;;;;;16.42;4.60;;;;;;;;;;5068859;28;20059;-59
2022/05/28 04:36:20;;;;;;;10.73;5.32;;;;;;;;;;5068711;28;20028;-57
2022/05/28 04:38:46;;;;;;;10.40;4.43;;;;;;;;;;5069509;28;20410;-57
2022/05/28 04:41:11;;;;;;;18.25;4.60;;;;;;;;;;5068913;28;20173;-58
2022/05/28 04:43:37;;;;;;;15.98;4.50;;;;;;;;;;5070200;28;20078;-57
2022/05/28 04:46:02;;;;;;;9.52;4.50;;;;;;;;;;5070379;28;20024;-57
2022/05/28 04:48:28;;;;;;;10.48;4.22;;;;;;;;;;5066353;28;20395;-57
2022/05/28 04:50:53;;;;;;;11.32;3.67;;;;;;;;;;5072529;28;20536;-57
2022/05/28 04:53:19;;;;;;;14.05;4.35;;;;;;;;;;5069736;28;20028;-57
2022/05/28 04:55:45;;;;;;;13.02;4.07;;;;;;;;;;5064619;28;20032;-57
2022/05/28 04:58:12;;;;;;;13.20;3.97;;;;;;;;;;5066433;28;20020;-57
2022/05/28 05:00:38;;;;;;;9.40;3.42;;;;;;;;;;5068708;28;20487;-57
2022/05/28 05:03:03;;;;;;;11.73;3.92;;;;;;;;;;5073311;28;20031;-58
2022/05/28 05:05:29;;;;;;;10.88;3.80;;;;;;;;;;5073367;28;20020;-58
2022/05/28 05:07:54;;;;;;;11.95;4.07;;;;;;;;;;5071632;28;20051;-58
2022/05/28 05:10:20;;;;;;;10.80;3.25;;;;;;;;;;5059140;28;20029;-58
2022/05/28 05:12:45;;;;;;;8.75;3.92;;;;;;;;;;5061294;28;20024;-58
2022/05/28 05:15:12;;;;;;;13.63;3.13;;;;;;;;;;5063259;28;20025;-58
2022/05/28 05:17:37;;;;;;;11.48;3.63;;;;;;;;;;5060823;28;20070;-58
2022/05/28 05:20:03;;;;;;;14.80;3.22;;;;;;;;;;5067329;28;20024;-58
2022/05/28 05:22:29;;;;;;;8.98;3.20;;;;;;;;;;5066917;28;20017;-58
2022/05/28 05:24:54;;;;;;;9.45;3.95;;;;;;;;;;5067686;28;20483;-58
2022/05/28 05:27:20;;;;;;;14.23;3.92;;;;;;;;;;5070169;28;20465;-58
2022/05/28 05:29:45;;;;;;;10.75;3.22;;;;;;;;;;5066128;28;20024;-58
2022/05/28 05:32:11;;;;;;;14.40;3.65;;;;;;;;;;5069311;28;20061;-58
2022/05/28 05:34:37;;;;;;;10.98;3.33;;;;;;;;;;5068480;28;20161;-58
2022/05/28 05:37:03;;;;;;;10.05;2.92;;;;;;;;;;5066640;28;20025;-58
2022/05/28 05:39:29;;;;;;;8.15;2.58;;;;;;;;;;5062125;28;20171;-58
2022/05/28 05:41:55;;;;;;;10.00;3.03;;;;;;;;;;5070548;28;20490;-58
2022/05/28 05:44:21;;;;;;;16.63;3.97;;;;;;;;;;5075274;28;20051;-58
2022/05/28 05:46:46;;;;;;;8.77;3.10;;;;;;;;;;5074250;28;20111;-58
2022/05/28 05:49:12;;;;;;;8.23;3.03;;;;;;;;;;5075247;28;20399;-58
2022/05/28 05:51:41;;;;;;;7.40;3.22;;;;;;;;;;5072670;28;20025;-57
2022/05/28 05:54:07;;;;;;;9.00;3.22;;;;;;;;;;5069595;28;20426;-57
2022/05/28 05:56:32;;;;;;;14.65;3.45;;;;;;;;;;5072104;28;20136;-58
2022/05/28 05:58:57;;;;;;;8.68;3.22;;;;;;;;;;5071654;28;20032;-58
2022/05/28 06:01:24;;;;;;;12.20;3.78;;;;;;;;;;5060979;28;20067;-57
2022/05/28 06:03:50;;;;;;;7.80;3.33;;;;;;;;;;5072938;28;20047;-58
2022/05/28 06:06:17;;;;;;;14.20;2.92;;;;;;;;;;5076846;28;20478;-57
2022/05/28 06:08:43;;;;;;;11.95;2.78;;;;;;;;;;5064543;28;20040;-57
2022/05/28 06:11:09;;;;;;;8.25;2.35;;;;;;;;;;5065087;28;20025;-57
2022/05/28 06:13:35;;;;;;;10.93;2.28;;;;;;;;;;5064959;28;20025;-58
2022/05/28 06:16:00;;;;;;;7.55;2.55;;;;;;;;;;5066454;28;20032;-58
2022/05/28 06:18:26;;;;;;;10.15;2.53;;;;;;;;;;5065055;28;20039;-58
2022/05/28 06:20:53;;;;;;;6.13;2.40;;;;;;;;;;5072020;28;20089;-58
2022/05/28 06:23:19;;;;;;;11.88;3.28;;;;;;;;;;5071382;28;20030;-59
2022/05/28 06:25:44;;;;;;;13.73;3.00;;;;;;;;;;5073591;28;20133;-58
2022/05/28 06:28:10;;;;;;;9.18;2.40;;;;;;;;;;5073910;28;20482;-58
2022/05/28 06:30:35;;;;;;;13.73;3.88;;;;;;;;;;5070959;28;20013;-58
2022/05/28 06:33:01;;;;;;;8.75;2.70;;;;;;;;;;5070844;28;20214;-58
2022/05/28 06:35:29;;;;;;;7.28;2.55;;;;;;;;;;5069276;28;20107;-59
2022/05/28 06:37:54;;;;;;;10.50;2.80;;;;;;;;;;5069268;28;20027;-58
2022/05/28 06:40:19;;;;;;;9.65;2.78;;;;;;;;;;5070183;28;20107;-58
2022/05/28 06:42:46;;;;;;;12.23;3.00;;;;;;;;;;5070030;28;20025;-59
2022/05/28 06:45:14;;;;;;;14.35;2.97;;;;;;;;;;5072235;28;20081;-58
2022/05/28 06:47:41;;;;;;;11.70;2.58;;;;;;;;;;5068787;28;20138;-58
2022/05/28 06:52:51;;;;;;;11.82;2.45;;;;;;;;;;5071279;28;20039;-58
2022/05/28 06:55:16;;;;;;;15.07;2.90;;;;;;;;;;5075556;28;20024;-58
2022/05/28 06:57:42;;;;;;;9.50;2.35;;;;;;;;;;5065163;28;20155;-58
2022/05/28 07:00:08;;;;;;;9.93;3.08;;;;;;;;;;5069987;28;20413;-58
2022/05/28 07:02:33;;;;;;;17.10;3.25;;;;;;;;;;5073435;28;20231;-58
2022/05/28 07:04:59;;;;;;;13.65;2.72;;;;;;;;;;5075571;28;20027;-58
2022/05/28 07:07:24;;;;;;;14.45;4.25;;;;;;;;;;5067214;28;20048;-58
2022/05/28 07:09:49;;;;;;;15.25;2.70;;;;;;;;;;5061985;28;20050;-58
2022/05/28 07:12:15;;;;;;;7.40;2.78;;;;;;;;;;5059570;28;20029;-58
2022/05/28 07:14:40;;;;;;;7.18;2.28;;;;;;;;;;5065446;28;20127;-59
2022/05/28 07:17:06;;;;;;;9.40;2.42;;;;;;;;;;5065582;28;20026;-58
2022/05/28 07:19:31;;;;;;;13.90;3.72;;;;;;;;;;5070931;28;20021;-58
2022/05/28 07:21:56;;;;;;;7.03;2.20;;;;;;;;;;5070136;28;20021;-58
2022/05/28 07:24:22;;;;;;;11.68;2.40;;;;;;;;;;5073420;28;20475;-59
2022/05/28 07:26:51;;;;;;;12.73;2.65;;;;;;;;;;5071496;28;20470;-58
2022/05/28 07:29:17;;;;;;;15.30;3.00;;;;;;;;;;5070988;28;20429;-58
2022/05/28 07:31:42;;;;;;;8.30;2.60;;;;;;;;;;5069646;28;20025;-58
2022/05/28 07:34:08;;;;;;;10.68;2.80;;;;;;;;;;5072705;28;20020;-58
2022/05/28 07:36:35;;;;;;;11.98;2.20;;;;;;;;;;5069039;28;20462;-58
2022/05/28 07:39:02;;;;;;;42.50;15.57;;;;;;;;;;5071507;28;20024;-59
2022/05/28 07:41:28;;;;;;;9.35;2.50;;;;;;;;;;5068819;28;20032;-58
2022/05/28 07:43:55;;;;;;;36.47;8.48;;;;;;;;;;5069135;28;20028;-58
2022/05/28 07:46:26;;;;;;;13.25;3.42;;;;;;;;;;5073850;28;20063;-58
2022/05/28 07:48:54;;;;;;;6.70;1.98;;;;;;;;;;5071995;28;20070;-58
2022/05/28 07:51:19;;;;;;;9.57;2.40;;;;;;;;;;5069821;28;20031;-58
2022/05/28 07:53:45;;;;;;;9.25;1.90;;;;;;;;;;5065940;28;20394;-59
2022/05/28 07:56:11;;;;;;;9.20;2.30;;;;;;;;;;5063100;28;20063;-57
2022/05/28 07:58:37;;;;;;;8.63;2.63;;;;;;;;;;5069481;28;20032;-57
2022/05/28 08:01:04;;;;;;;10.05;1.90;;;;;;;;;;5059178;28;20024;-58
2022/05/28 08:03:30;;;;;;;7.47;1.75;;;;;;;;;;5065289;28;20448;-58
2022/05/28 08:05:56;;;;;;;7.05;1.80;;;;;;;;;;5061777;28;20486;-58
2022/05/28 08:08:24;;;;;;;7.85;2.08;;;;;;;;;;5062641;28;20050;-58
2022/05/28 08:10:50;;;;;;;8.25;1.60;;;;;;;;;;5059077;28;20356;-58
2022/05/28 08:13:19;;;;;;;8.13;1.88;;;;;;;;;;5058226;28;20033;-58
2022/05/28 08:15:46;;;;;;;4.65;1.85;;;;;;;;;;5063001;28;20431;-58
2022/05/28 08:18:14;;;;;;;9.32;1.92;;;;;;;;;;5066648;28;20661;-58
2022/05/28 08:23:24;;;;;;;9.30;1.70;;;;;;;;;;5066911;28;20153;-59
2022/05/28 08:25:49;;;;;;;7.20;1.80;;;;;;;;;;5067271;28;20115;-59
2022/05/28 08:28:18;;;;;;;16.08;5.28;;;;;;;;;;5070354;28;20027;-58
2022/05/28 08:30:44;;;;;;;12.52;2.60;;;;;;;;;;5067165;28;20457;-59
2022/05/28 08:33:12;;;;;;;8.70;1.92;;;;;;;;;;5072160;28;20028;-59
2022/05/28 08:35:40;;;;;;;8.13;1.98;;;;;;;;;;5069252;28;20021;-58
2022/05/28 08:38:18;;;;;;;5.82;1.30;;;;;;;;;;5068907;28;20055;-58
2022/05/28 08:40:45;;;;;;;3.95;1.83;;;;;;;;;;5062525;28;20030;-59
2022/05/28 08:43:13;;;;;;;7.07;1.50;;;;;;;;;;5075985;28;20458;-58
2022/05/28 08:45:39;;;;;;;9.05;1.50;;;;;;;;;;5071255;28;20035;-59
2022/05/28 08:48:05;;;;;;;7.22;1.23;;;;;;;;;;5072728;28;20020;-58
2022/05/28 08:50:35;;;;;;;7.25;1.38;;;;;;;;;;5063095;28;20157;-58
2022/05/28 08:53:13;;;;;;;5.90;1.63;;;;;;;;;;5068426;28;20046;-58
2022/05/28 08:55:48;;;;;;;6.45;1.60;;;;;;;;;;5071460;28;20032;-60
2022/05/28 08:58:17;;;;;;;4.18;1.27;;;;;;;;;;5071574;28;20041;-58
2022/05/28 09:00:48;;;;;;;6.03;1.52;;;;;;;;;;5069325;28;20036;-58
2022/05/28 09:03:19;;;;;;;3.70;1.20;;;;;;;;;;5067191;28;20089;-58
2022/05/28 09:05:58;;;;;;;6.32;1.38;;;;;;;;;;5063363;28;20475;-58
2022/05/28 09:08:44;;;;;;;4.72;1.58;;;;;;;;;;5063722;28;20032;-58
2022/05/28 09:11:13;;;;;;;4.72;1.23;;;;;;;;;;5064300;28;20031;-58
2022/05/28 09:13:43;;;;;;;4.40;1.50;;;;;;;;;;5061607;28;20129;-58
2022/05/28 09:16:27;;;;;;;4.13;1.52;;;;;;;;;;5065666;28;20437;-58
2022/05/28 09:18:55;;;;;;;6.07;1.60;;;;;;;;;;5060404;28;20021;-58
2022/05/28 09:21:21;;;;;;;7.70;1.70;;;;;;;;;;5066615;28;20016;-58
2022/05/28 09:23:55;;;;;;;6.65;1.80;;;;;;;;;;5071715;28;20036;-58
2022/05/28 09:26:30;;;;;;;5.90;1.40;;;;;;;;;;5075315;28;20483;-58
2022/05/28 09:29:17;;;;;;;4.82;1.50;;;;;;;;;;5069865;28;20032;-58
2022/05/28 09:31:50;;;;;;;8.25;1.50;;;;;;;;;;5067840;28;20040;-58
2022/05/28 09:34:37;;;;;;;5.30;1.77;;;;;;;;;;5072421;28;20077;-58
2022/05/28 09:37:25;;;;;;;8.18;1.55;;;;;;;;;;5073279;28;20032;-58
2022/05/28 09:40:04;;;;;;;6.10;1.42;;;;;;;;;;5059715;28;20115;-58
2022/05/28 09:42:44;;;;;;;4.53;1.40;;;;;;;;;;5075457;28;20043;-58
2022/05/28 09:45:16;;;;;;;3.83;1.30;;;;;;;;;;5072163;28;20551;-58
2022/05/28 09:47:49;;;;;;;7.63;1.50;;;;;;;;;;5073813;28;20035;-58
2022/05/28 09:50:41;;;;;;;4.70;1.25;;;;;;;;;;5076541;28;20024;-58
2022/05/28 09:56:04;;;;;;;4.78;1.30;;;;;;;;;;5074223;28;20111;-58
2022/05/28 09:58:35;;;;;;;7.45;1.20;;;;;;;;;;5062607;28;20512;-58
2022/05/28 10:01:25;;;;;;;4.32;1.40;;;;;;;;;;5071076;28;20021;-59
2022/05/28 10:06:49;;;;;;;5.88;1.55;;;;;;;;;;5067354;28;20040;-59
2022/05/28 10:09:18;;;;;;;10.63;3.20;;;;;;;;;;5061657;28;20075;-59
2022/05/28 10:12:16;;;;;;;5.75;1.73;;;;;;;;;;5066571;28;20035;-58
2022/05/28 10:14:41;;;;;;;14.38;5.35;;;;;;;;;;5062229;28;20040;-58
2022/05/28 10:17:07;;;;;;;6.25;2.13;;;;;;;;;;5072904;28;20468;-58
2022/05/28 10:19:40;;;;;;;6.18;1.52;;;;;;;;;;5074838;28;20031;-58
2022/05/28 10:22:21;;;;;;;5.82;1.55;;;;;;;;;;5071712;28;20104;-58
2022/05/28 10:25:09;;;;;;;5.25;1.75;;;;;;;;;;5071725;28;20029;-58
2022/05/28 10:27:46;;;;;;;7.03;1.50;;;;;;;;;;5056959;28;20503;-58
2022/05/28 10:30:29;;;;;;;4.50;1.50;;;;;;;;;;5068252;28;20143;-58
2022/05/28 10:32:55;;;;;;;7.30;1.50;;;;;;;;;;5067665;28;20034;-58
2022/05/28 10:35:26;;;;;;;2.83;1.30;;;;;;;;;;5071392;28;20024;-58
2022/05/28 10:37:52;;;;;;;4.82;1.40;;;;;;;;;;5070522;28;20050;-58
2022/05/28 10:40:17;;;;;;;5.40;1.48;;;;;;;;;;5066526;28;20038;-58
2022/05/28 10:42:43;;;;;;;4.38;1.17;;;;;;;;;;5066662;28;20051;-58
2022/05/28 10:45:10;;;;;;;2.88;1.20;;;;;;;;;;5066078;28;20070;-58
2022/05/28 10:48:17;;;;;;;6.07;1.40;;;;;;;;;;5062946;28;20071;-58
2022/05/28 10:50:55;;;;;;;3.03;1.10;;;;;;;;;;5075407;28;20030;-58
2022/05/28 10:53:28;;;;;;;2.67;0.85;;;;;;;;;;5071284;28;20039;-59
2022/05/28 10:56:06;;;;;;;4.25;1.13;;;;;;;;;;5068418;28;20138;-58
2022/05/28 10:59:10;;;;;;;3.40;1.33;;;;;;;;;;5066808;28;20036;-58
2022/05/28 11:01:45;;;;;;;4.95;1.17;;;;;;;;;;5031086;28;20037;-58
2022/05/28 11:04:30;;;;;;;5.15;1.20;;;;;;;;;;5025751;28;20064;-58
2022/05/28 11:07:06;;;;;;;3.95;1.20;;;;;;;;;;5056354;28;20044;-58
2022/05/28 11:09:51;;;;;;;6.38;1.52;;;;;;;;;;5061505;28;20028;-58
2022/05/28 11:12:26;;;;;;;5.00;1.40;;;;;;;;;;5057345;28;20072;-59
2022/05/28 11:15:09;;;;;;;3.33;1.20;;;;;;;;;;5069487;28;20451;-58
2022/05/28 11:18:01;;;;;;;4.47;1.58;;;;;;;;;;5071226;28;20024;-58
2022/05/28 11:21:01;;;;;;;5.82;1.45;;;;;;;;;;5073748;28;20085;-58
2022/05/28 11:23:49;;;;;;;8.07;1.85;;;;;;;;;;5068212;28;20317;-58
2022/05/28 11:26:43;;;;;;;5.72;1.38;;;;;;;;;;5071103;28;20028;-58
2022/05/28 11:29:46;;;;;;;4.57;1.63;;;;;;;;;;5066338;28;20410;-58
2022/05/28 11:32:27;;;;;;;4.82;1.33;;;;;;;;;;5071448;28;20064;-58
2022/05/28 11:34:57;;;;;;;6.25;1.30;;;;;;;;;;5063269;28;20028;-59
2022/05/28 11:37:34;;;;;;;6.68;1.52;;;;;;;;;;5070444;28;20040;-59
2022/05/28 11:40:07;;;;;;;3.17;1.15;;;;;;;;;;5072810;28;20028;-59
2022/05/28 11:42:39;;;;;;;7.82;1.52;;;;;;;;;;5075402;28;20020;-59
2022/05/28 11:45:09;;;;;;;8.18;1.38;;;;;;;;;;5068727;28;20398;-59
2022/05/28 11:47:49;;;;;;;5.38;1.38;;;;;;;;;;5068991;28;20043;-59
2022/05/28 11:53:39;;;;;;;5.82;1.40;;;;;;;;;;5035527;28;20029;-59
2022/05/28 11:56:18;;;;;;;6.20;1.58;;;;;;;;;;5058874;28;20081;-59
2022/05/28 11:58:52;;;;;;;5.47;1.63;;;;;;;;;;5068001;28;20032;-59
2022/05/28 12:01:21;;;;;;;5.22;1.77;;;;;;;;;;5069002;28;20095;-59
2022/05/28 12:03:47;;;;;;;4.75;1.80;;;;;;;;;;5057642;28;20040;-59
2022/05/28 12:06:26;;;;;;;5.85;1.60;;;;;;;;;;5065235;28;20115;-59
2022/05/28 12:09:15;;;;;;;7.45;1.67;;;;;;;;;;5062283;28;20086;-59
2022/05/28 12:12:42;;;;;;;6.57;1.58;;;;;;;;;;5063471;28;20024;-59
2022/05/28 12:15:07;;;;;;;13.50;1.75;;;;;;;;;;5027054;28;20550;-59
2022/05/28 12:17:34;;;;;;;5.18;1.52;;;;;;;;;;5053936;28;20028;-59
2022/05/28 12:20:07;;;;;;;6.35;1.70;;;;;;;;;;5070025;28;20150;-59
2022/05/28 12:22:53;;;;;;;6.20;1.30;;;;;;;;;;5068582;28;20029;-59
2022/05/28 12:25:38;;;;;;;4.35;1.25;;;;;;;;;;5071533;28;20036;-59
2022/05/28 12:28:21;;;;;;;4.78;1.48;;;;;;;;;;5058928;28;20032;-59
2022/05/28 12:30:49;;;;;;;6.03;1.52;;;;;;;;;;5065454;28;20478;-59
2022/05/28 12:33:27;;;;;;;5.63;1.55;;;;;;;;;;5071793;28;20503;-59
2022/05/28 12:36:01;;;;;;;4.90;1.42;;;;;;;;;;5069504;28;20395;-59
2022/05/28 12:38:42;;;;;;;6.25;1.55;;;;;;;;;;5066888;28;20480;-59
2022/05/28 12:41:18;;;;;;;7.30;1.83;;;;;;;;;;5072341;28;20023;-59
2022/05/28 12:43:50;;;;;;;6.28;1.38;;;;;;;;;;5067780;28;20044;-59
2022/05/28 12:46:20;;;;;;;6.72;2.58;;;;;;;;;;5065865;28;20036;-59
2022/05/28 12:48:51;;;;;;;49.53;18.77;;;;;;;;;;5073075;28;20032;-57
2022/05/28 12:51:34;;;;;;;21.27;8.00;;;;;;;;;;5068171;28;20031;-57
2022/05/28 12:54:03;;;;;;;34.90;14.02;;;;;;;;;;5067134;28;20044;-57
2022/05/28 12:56:34;;;;;;;27.23;10.43;;;;;;;;;;5064663;28;20024;-56
2022/05/28 12:59:11;;;;;;;26.10;8.52;;;;;;;;;;5077255;28;20016;-56
2022/05/28 13:01:38;;;;;;;14.45;4.53;;;;;;;;;;5063281;28;20025;-57
2022/05/28 13:04:17;;;;;;;17.15;5.90;;;;;;;;;;5069313;28;20313;-57
2022/05/28 13:06:52;;;;;;;10.75;3.47;;;;;;;;;;5066321;28;20244;-57
2022/05/28 13:09:24;;;;;;;6.57;2.28;;;;;;;;;;5067342;28;20058;-57
2022/05/28 13:12:11;;;;;;;10.35;3.20;;;;;;;;;;5066123;28;20040;-57
2022/05/28 13:15:09;;;;;;;8.57;3.05;;;;;;;;;;5073482;28;20513;-57
2022/05/28 13:18:00;;;;;;;14.05;5.40;;;;;;;;;;5067344;28;20480;-57
2022/05/28 13:20:50;;;;;;;9.57;2.63;;;;;;;;;;5073188;28;20063;-57
2022/05/28 13:23:18;;;;;;;;;;;;;;;;;;5073678;28;20566;-57
2022/05/28 13:26:01;;;;;;;7.70;2.22;;;;;;;;;;5070586;28;19948;-57
2022/05/28 13:28:52;;;;;;;3.88;1.48;;;;;;;;;;5068559;28;20028;-57
2022/05/28 13:31:24;;;;;;;7.18;2.15;;;;;;;;;;5072899;28;20424;-57
2022/05/28 13:33:49;;;;;;;3.35;1.08;;;;;;;;;;5072823;28;20025;-57
2022/05/28 13:36:16;;;;;;;5.63;1.33;;;;;;;;;;5072892;28;20486;-57
2022/05/28 13:38:45;;;;;;;4.88;1.60;;;;;;;;;;5073673;28;20027;-57
2022/05/28 13:41:12;;;;;;;;;;;;;;;;;;5070292;28;20142;-57
2022/05/28 13:43:43;;;;;;;9.43;1.75;;;;;;;;;;5074731;28;19908;-57
2022/05/28 13:46:12;;;;;;;4.80;1.80;;;;;;;;;;5065665;28;20035;-57
2022/05/28 13:48:53;;;;;;;7.80;1.90;;;;;;;;;;5075207;28;20532;-57
2022/05/28 13:51:19;;;;;;;6.20;1.50;;;;;;;;;;5068554;28;20033;-57
2022/05/28 13:53:51;;;;;;;9.23;2.10;;;;;;;;;;5074261;28;20032;-57
2022/05/28 13:56:22;;;;;;;7.90;1.55;;;;;;;;;;5068297;28;20111;-57
2022/05/28 13:58:48;;;;;;;3.50;1.20;;;;;;;;;;5071848;28;20299;-57
2022/05/28 14:01:37;;;;;;;5.00;1.30;;;;;;;;;;5061322;28;20096;-57
2022/05/28 14:04:19;;;;;;;8.25;1.60;;;;;;;;;;5061417;28;20111;-57
2022/05/28 14:07:00;;;;;;;21.83;5.43;;;;;;;;;;5066600;28;20039;-57
2022/05/28 14:09:33;;;;;;;10.13;2.33;;;;;;;;;;5067126;28;20032;-57
2022/05/28 14:11:59;;;;;;;6.95;1.77;;;;;;;;;;5066213;28;20187;-57
2022/05/28 14:14:27;;;;;;;6.63;2.10;;;;;;;;;;5068811;28;20329;-58
2022/05/28 14:17:03;;;;;;;7.05;1.77;;;;;;;;;;5062288;28;20025;-58
2022/05/28 14:19:38;;;;;;;5.82;1.63;;;;;;;;;;5071299;28;20028;-61
2022/05/28 14:22:07;;;;;;;8.73;1.52;;;;;;;;;;5067001;28;20036;-58
2022/05/28 14:24:38;;;;;;;4.10;1.40;;;;;;;;;;5070095;28;20013;-61
2022/05/28 14:27:08;;;;;;;6.05;2.05;;;;;;;;;;5073700;28;20332;-59
2022/05/28 14:29:37;;;;;;;8.15;1.80;;;;;;;;;;5073546;28;20052;-58
2022/05/28 14:32:09;;;;;;;5.95;1.80;;;;;;;;;;5067829;28;20025;-61
2022/05/28 14:34:40;;;;;;;8.93;1.70;;;;;;;;;;5069213;28;20035;-60
2022/05/28 14:37:07;;;;;;;5.82;1.70;;;;;;;;;;5074658;28;20123;-61
2022/05/28 14:39:44;;;;;;;4.55;1.20;;;;;;;;;;5074153;28;20024;-60
2022/05/28 14:42:13;;;;;;;8.40;1.50;;;;;;;;;;5063516;28;20024;-61
2022/05/28 14:44:40;;;;;;;6.40;1.92;;;;;;;;;;5067817;28;20031;-60
2022/05/28 14:47:16;;;;;;;6.28;1.50;;;;;;;;;;5072128;28;20487;-59
2022/05/28 14:49:52;;;;;;;5.40;1.60;;;;;;;;;;5068923;28;20028;-58
2022/05/28 14:52:20;;;;;;;7.05;2.05;;;;;;;;;;5065155;28;20020;-58
2022/05/28 14:54:52;;;;;;;4.65;1.80;;;;;;;;;;5078379;28;20024;-58
2022/05/28 14:57:28;;;;;;;6.53;1.50;;;;;;;;;;5073151;28;20034;-58
2022/05/28 14:59:54;;;;;;;5.40;1.38;;;;;;;;;;5060143;28;20024;-58
2022/05/28 15:02:22;;;;;;;3.53;1.20;;;;;;;;;;5060394;28;20021;-58
2022/05/28 15:04:48;;;;;;;3.72;1.17;;;;;;;;;;5064097;28;20029;-58
2022/05/28 15:07:24;;;;;;;6.07;1.80;;;;;;;;;;5066877;28;20025;-58
2022/05/28 15:09:52;;;;;;;5.57;2.25;;;;;;;;;;5065307;28;20048;-58
2022/05/28 15:12:36;;;;;;;5.43;1.90;;;;;;;;;;5072242;28;20031;-59